createdAt,value
2023-03-07T00:00:09.156Z,60.71
2023-03-07T00:02:37.439Z,60.49
2023-03-07T00:05:06.684Z,60.35
2023-03-07T00:07:35.338Z,60.28
2023-03-07T00:10:03.612Z,60.48
2023-03-07T00:12:33.347Z,60.21
2023-03-07T00:15:01.645Z,60.36
2023-03-07T00:17:29.885Z,60.42
2023-03-07T00:19:58.158Z,60.60
2023-03-07T00:22:26.460Z,60.72
2023-03-07T00:24:54.826Z,60.66
2023-03-07T00:27:23.157Z,60.38
2023-03-07T00:29:52.845Z,60.43
2023-03-07T00:32:21.360Z,60.47
2023-03-07T00:34:49.667Z,60.57
2023-03-07T00:37:18.166Z,60.48
2023-03-07T00:39:46.716Z,60.81
2023-03-07T00:42:15.077Z,60.60
2023-03-07T00:44:43.585Z,60.57
2023-03-07T00:47:13.635Z,60.59
2023-03-07T00:49:42.085Z,60.70
2023-03-07T00:52:10.344Z,60.62
2023-03-07T00:54:38.689Z,60.66
2023-03-07T00:57:07.105Z,60.67
2023-03-07T00:59:35.486Z,60.66
2023-03-07T01:02:03.808Z,60.47
2023-03-07T01:04:33.753Z,60.07
2023-03-07T01:07:02.044Z,59.95
2023-03-07T01:09:30.536Z,59.91
2023-03-07T01:11:59.297Z,59.68
2023-03-07T01:14:27.647Z,60.00
2023-03-07T01:16:56.215Z,59.81
2023-03-07T01:19:24.697Z,59.88
2023-03-07T01:21:56.635Z,59.70
2023-03-07T01:24:25.209Z,59.69
2023-03-07T01:26:53.804Z,59.70
2023-03-07T01:29:24.119Z,60.06
2023-03-07T01:31:52.462Z,59.77
2023-03-07T01:34:20.925Z,59.81
2023-03-07T01:36:51.857Z,60.06
2023-03-07T01:39:21.660Z,59.90
2023-03-07T01:42:03.017Z,59.93
2023-03-07T01:44:32.758Z,59.96
2023-03-07T01:47:02.085Z,60.20
2023-03-07T01:49:50.478Z,60.22
2023-03-07T01:52:22.031Z,59.93
2023-03-07T01:54:59.572Z,59.62
2023-03-07T01:57:31.667Z,59.54
2023-03-07T02:00:05.701Z,59.65
2023-03-07T02:02:45.130Z,59.73
2023-03-07T02:05:25.420Z,59.33
2023-03-07T02:07:55.330Z,59.44
2023-03-07T02:10:28.848Z,59.26
2023-03-07T02:12:57.305Z,59.48
2023-03-07T02:15:25.893Z,59.74
2023-03-07T02:17:54.829Z,59.81
2023-03-07T02:20:33.295Z,59.64
2023-03-07T02:23:02.381Z,59.84
2023-03-07T02:25:37.960Z,59.67
2023-03-07T02:28:11.573Z,59.53
2023-03-07T02:30:39.998Z,59.44
2023-03-07T02:33:08.381Z,59.33
2023-03-07T02:35:36.686Z,59.69
2023-03-07T02:38:07.634Z,59.38
2023-03-07T02:40:35.998Z,59.58
2023-03-07T02:43:09.542Z,59.79
2023-03-07T02:45:41.679Z,59.66
2023-03-07T02:48:10.034Z,60.06
2023-03-07T02:50:38.375Z,59.77
2023-03-07T02:53:06.951Z,59.85
2023-03-07T02:55:35.185Z,59.44
2023-03-07T02:58:05.996Z,59.54
2023-03-07T03:00:34.508Z,59.25
2023-03-07T03:03:04.315Z,59.36
2023-03-07T03:05:32.967Z,59.78
2023-03-07T03:08:01.252Z,59.78
2023-03-07T03:10:31.919Z,59.89
2023-03-07T03:13:02.308Z,59.93
2023-03-07T03:15:31.019Z,60.68
2023-03-07T03:17:59.332Z,60.17
2023-03-07T03:20:29.097Z,59.98
2023-03-07T03:22:58.237Z,59.41
2023-03-07T03:25:27.311Z,59.59
2023-03-07T03:27:55.969Z,59.48
2023-03-07T03:30:26.779Z,59.35
2023-03-07T03:32:56.513Z,58.93
2023-03-07T03:35:25.018Z,58.67
2023-03-07T03:37:57.954Z,58.89
2023-03-07T03:40:26.901Z,58.83
2023-03-07T03:42:55.218Z,58.83
2023-03-07T03:45:26.474Z,58.58
2023-03-07T03:47:55.025Z,58.48
2023-03-07T03:50:23.312Z,58.53
2023-03-07T03:52:51.577Z,58.47
2023-03-07T03:55:21.277Z,58.35
2023-03-07T03:57:49.624Z,58.36
2023-03-07T04:00:21.152Z,57.69
2023-03-07T04:02:50.092Z,57.87
2023-03-07T04:05:19.915Z,57.56
2023-03-07T04:07:51.416Z,57.71
2023-03-07T04:10:22.252Z,57.43
2023-03-07T04:12:50.746Z,57.35
2023-03-07T04:15:19.166Z,57.20
2023-03-07T04:17:47.535Z,57.02
2023-03-07T04:20:17.792Z,57.12
2023-03-07T04:22:48.310Z,56.49
2023-03-07T04:25:16.785Z,56.37
2023-03-07T04:27:46.434Z,56.32
2023-03-07T04:30:15.158Z,56.01
2023-03-07T04:32:43.639Z,55.73
2023-03-07T04:35:12.020Z,55.81
2023-03-07T04:37:40.660Z,55.53
2023-03-07T04:40:10.079Z,55.43
2023-03-07T04:42:38.359Z,55.25
2023-03-07T04:45:09.622Z,55.23
2023-03-07T04:47:37.982Z,55.05
2023-03-07T04:50:07.154Z,54.74
2023-03-07T04:52:37.100Z,54.78
2023-03-07T04:55:06.083Z,54.72
2023-03-07T04:57:34.522Z,54.51
2023-03-07T05:00:03.406Z,54.83
2023-03-07T05:02:33.184Z,54.61
2023-03-07T05:05:03.619Z,54.55
2023-03-07T05:07:32.473Z,54.48
2023-03-07T05:10:00.900Z,54.33
2023-03-07T05:12:30.167Z,54.10
2023-03-07T05:15:00.859Z,53.88
2023-03-07T05:17:32.689Z,53.78
2023-03-07T05:20:01.069Z,53.67
2023-03-07T05:22:29.778Z,53.66
2023-03-07T05:24:58.543Z,53.84
2023-03-07T05:27:27.469Z,53.87
2023-03-07T05:29:55.716Z,53.88
2023-03-07T05:32:24.831Z,54.07
2023-03-07T05:34:54.704Z,54.26
2023-03-07T05:37:24.342Z,54.78
2023-03-07T05:39:53.395Z,55.13
2023-03-07T05:42:21.848Z,55.31
2023-03-07T05:44:50.763Z,55.63
2023-03-07T05:47:19.108Z,55.60
2023-03-07T05:49:47.423Z,55.60
2023-03-07T05:52:17.472Z,55.65
2023-03-07T05:54:45.876Z,55.51
2023-03-07T05:57:14.470Z,55.38
2023-03-07T05:59:42.906Z,55.22
2023-03-07T06:02:11.233Z,55.45
2023-03-07T06:04:39.543Z,55.33
2023-03-07T06:07:07.828Z,55.54
2023-03-07T06:09:37.628Z,55.45
2023-03-07T06:12:06.439Z,55.61
2023-03-07T06:14:34.710Z,55.49
2023-03-07T06:17:04.160Z,55.78
2023-03-07T06:19:34.026Z,55.86
2023-03-07T06:22:02.620Z,55.76
2023-03-07T06:24:31.597Z,55.70
2023-03-07T06:27:01.326Z,55.65
2023-03-07T06:29:30.276Z,55.74
2023-03-07T06:31:59.538Z,56.05
2023-03-07T06:34:27.978Z,56.18
2023-03-07T06:36:57.613Z,56.13
2023-03-07T06:39:27.940Z,56.29
2023-03-07T06:41:57.153Z,56.26
2023-03-07T06:44:26.904Z,56.30
2023-03-07T06:46:55.335Z,56.07
2023-03-07T06:49:24.251Z,55.95
2023-03-07T06:51:53.153Z,55.80
2023-03-07T06:54:21.762Z,55.49
2023-03-07T06:56:51.660Z,55.38
2023-03-07T06:59:23.421Z,55.37
2023-03-07T07:01:53.297Z,55.44
2023-03-07T07:04:22.657Z,55.67
2023-03-07T07:06:52.076Z,55.54
2023-03-07T07:09:20.423Z,55.78
2023-03-07T07:11:48.790Z,56.00
2023-03-07T07:14:17.213Z,55.95
2023-03-07T07:16:45.770Z,56.03
2023-03-07T07:19:15.447Z,55.95
2023-03-07T07:21:43.981Z,56.12
2023-03-07T07:24:14.110Z,56.25
2023-03-07T07:26:42.442Z,55.97
2023-03-07T07:29:11.191Z,56.09
2023-03-07T07:31:39.643Z,56.00
2023-03-07T07:34:08.893Z,55.99
2023-03-07T07:36:39.289Z,55.90
2023-03-07T07:39:09.182Z,55.97
2023-03-07T07:41:39.671Z,56.22
2023-03-07T07:44:08.091Z,56.17
2023-03-07T07:46:42.603Z,56.23
2023-03-07T07:49:10.966Z,56.41
2023-03-07T07:51:41.181Z,56.52
2023-03-07T07:54:10.152Z,56.54
2023-03-07T07:56:38.444Z,56.48
2023-03-07T07:59:06.755Z,56.45
2023-03-07T08:01:35.349Z,56.52
2023-03-07T08:04:03.757Z,56.22
2023-03-07T08:06:32.062Z,56.24
2023-03-07T08:09:01.946Z,56.19
2023-03-07T08:11:30.422Z,55.99
2023-03-07T08:13:58.701Z,55.90
2023-03-07T08:16:27.077Z,55.93
2023-03-07T08:18:56.987Z,55.91
2023-03-07T08:21:26.289Z,55.84
2023-03-07T08:23:55.192Z,55.69
2023-03-07T08:26:25.337Z,55.43
2023-03-07T08:28:53.770Z,55.36
2023-03-07T08:31:24.446Z,55.00
2023-03-07T08:33:53.717Z,54.81
2023-03-07T08:36:22.114Z,54.58
2023-03-07T08:38:52.199Z,54.65
2023-03-07T08:41:21.600Z,54.31
2023-03-07T08:43:51.353Z,53.85
2023-03-07T08:46:19.706Z,53.66
2023-03-07T08:48:48.149Z,53.57
2023-03-07T08:51:28.909Z,53.49
2023-03-07T08:53:58.536Z,53.23
2023-03-07T08:56:27.335Z,53.10
2023-03-07T08:58:56.849Z,52.85
2023-03-07T09:01:25.035Z,52.98
2023-03-07T09:03:53.709Z,53.23
2023-03-07T09:06:22.578Z,53.34
2023-03-07T09:08:51.423Z,53.44
2023-03-07T09:11:21.733Z,53.49
2023-03-07T09:13:52.806Z,53.20
2023-03-07T09:16:23.995Z,52.93
2023-03-07T09:18:52.408Z,52.44
2023-03-07T09:21:20.561Z,52.44
2023-03-07T09:23:48.831Z,52.33
2023-03-07T09:26:19.955Z,52.03
2023-03-07T09:28:48.281Z,51.99
2023-03-07T09:31:18.656Z,51.41
2023-03-07T09:33:48.254Z,51.07
2023-03-07T09:36:18.146Z,51.16
2023-03-07T09:38:47.054Z,51.34
2023-03-07T09:41:51.542Z,50.55
2023-03-07T09:44:27.494Z,51.15
2023-03-07T09:47:59.760Z,51.72
2023-03-07T09:50:36.081Z,52.20
2023-03-07T09:53:22.098Z,51.45
2023-03-07T09:56:21.998Z,50.10
2023-03-07T09:59:32.986Z,49.34
2023-03-07T10:02:23.698Z,49.21
2023-03-07T10:04:57.198Z,49.47
2023-03-07T10:07:27.731Z,49.43
2023-03-07T10:10:01.878Z,49.28
2023-03-07T10:12:49.826Z,49.17
2023-03-07T10:15:35.740Z,49.48
2023-03-07T10:18:25.741Z,49.58
2023-03-07T10:21:01.026Z,49.66
2023-03-07T10:23:51.758Z,49.63
2023-03-07T10:26:28.278Z,49.99
2023-03-07T10:29:00.320Z,49.50
2023-03-07T10:31:37.326Z,49.31
2023-03-07T10:34:26.254Z,49.38
2023-03-07T10:37:08.722Z,50.23
2023-03-07T10:39:43.634Z,50.16
2023-03-07T10:42:13.232Z,49.53
2023-03-07T10:44:41.966Z,48.37
2023-03-07T10:47:22.077Z,47.96
2023-03-07T10:49:52.438Z,47.97
2023-03-07T10:52:32.602Z,47.46
2023-03-07T10:55:34.892Z,46.48
2023-03-07T10:58:19.740Z,45.51
2023-03-07T11:00:59.556Z,45.60
2023-03-07T11:03:52.727Z,44.86
2023-03-07T11:06:35.042Z,45.10
2023-03-07T11:09:26.755Z,43.96
2023-03-07T11:11:58.881Z,43.40
2023-03-07T11:14:31.502Z,43.90
2023-03-07T11:17:19.460Z,42.63
2023-03-07T11:19:49.217Z,40.41
2023-03-07T11:22:24.835Z,39.96
2023-03-07T11:25:00.508Z,37.59
2023-03-07T11:27:36.325Z,36.73
2023-03-07T11:30:29.808Z,35.58
2023-03-07T11:33:08.281Z,34.89
2023-03-07T11:35:53.984Z,33.95
2023-03-07T11:38:32.851Z,37.59
2023-03-07T11:41:07.010Z,38.97
2023-03-07T11:44:05.708Z,40.60
2023-03-07T11:46:44.312Z,41.04
2023-03-07T11:49:28.850Z,41.21
2023-03-07T11:52:08.895Z,39.72
2023-03-07T11:54:47.149Z,38.87
2023-03-07T11:57:27.163Z,38.75
2023-03-07T12:00:15.626Z,40.48
2023-03-07T12:03:05.832Z,38.49
2023-03-07T12:05:51.194Z,35.50
2023-03-07T12:08:47.183Z,31.19
2023-03-07T12:11:32.885Z,28.61
2023-03-07T12:14:11.770Z,27.16
2023-03-07T12:16:52.661Z,25.43
2023-03-07T12:19:46.269Z,25.38
2023-03-07T12:22:29.019Z,26.99
2023-03-07T12:25:09.601Z,27.89
2023-03-07T12:27:42.046Z,28.99
2023-03-07T12:30:17.713Z,29.10
2023-03-07T12:32:48.139Z,31.16
2023-03-07T12:35:24.184Z,28.52
2023-03-07T12:37:57.838Z,28.92
2023-03-07T12:40:33.903Z,29.48
2023-03-07T12:43:12.393Z,26.54
2023-03-07T12:45:46.932Z,26.22
2023-03-07T12:48:22.376Z,27.32
2023-03-07T12:50:58.352Z,26.85
2023-03-07T12:53:34.890Z,26.26
2023-03-07T12:56:09.372Z,26.35
2023-03-07T12:58:43.712Z,24.27
2023-03-07T13:01:16.850Z,23.96
2023-03-07T13:03:52.649Z,23.55
2023-03-07T13:06:23.406Z,23.29
2023-03-07T13:08:53.575Z,21.27
2023-03-07T13:11:23.709Z,22.20
2023-03-07T13:13:55.391Z,21.74
2023-03-07T13:16:44.117Z,21.40
2023-03-07T13:20:04.934Z,22.48
2023-03-07T13:23:13.156Z,23.10
2023-03-07T13:25:56.338Z,22.95
2023-03-07T13:28:53.206Z,20.02
2023-03-07T13:31:39.550Z,21.62
2023-03-07T13:34:48.231Z,22.40
2023-03-07T13:37:51.182Z,25.23
2023-03-07T13:40:48.759Z,25.40
2023-03-07T13:43:49.630Z,25.66
2023-03-07T13:46:51.148Z,24.91
2023-03-07T13:49:45.021Z,24.73
2023-03-07T13:52:41.261Z,26.44
2023-03-07T13:55:26.293Z,26.59
2023-03-07T13:57:59.147Z,26.46
2023-03-07T14:00:38.077Z,26.68
2023-03-07T14:03:24.226Z,25.08
2023-03-07T14:05:54.451Z,25.94
2023-03-07T14:08:27.253Z,25.67
2023-03-07T14:10:55.401Z,24.92
2023-03-07T14:13:45.312Z,22.79
2023-03-07T14:16:30.704Z,24.33
2023-03-07T14:19:09.440Z,26.57
2023-03-07T14:21:51.451Z,28.69
2023-03-07T14:24:39.632Z,29.65
2023-03-07T14:27:13.581Z,31.16
2023-03-07T14:29:52.062Z,31.57
2023-03-07T14:32:25.387Z,30.54
2023-03-07T14:34:54.372Z,30.06
2023-03-07T14:37:26.448Z,29.77
2023-03-07T14:40:14.528Z,28.47
2023-03-07T14:42:49.761Z,27.12
2023-03-07T14:45:24.976Z,27.59
2023-03-07T14:48:17.723Z,27.74
2023-03-07T14:50:46.302Z,28.00
2023-03-07T14:53:20.302Z,28.45
2023-03-07T14:55:51.244Z,29.06
2023-03-07T14:58:22.452Z,28.10
2023-03-07T15:01:00.452Z,28.29
2023-03-07T15:03:29.362Z,28.01
2023-03-07T15:05:58.833Z,27.09
2023-03-07T15:08:29.742Z,26.39
2023-03-07T15:11:00.933Z,26.75
2023-03-07T15:13:34.394Z,26.42
2023-03-07T15:16:06.732Z,26.94
2023-03-07T15:18:38.146Z,26.91
2023-03-07T15:21:07.713Z,26.38
2023-03-07T15:23:36.232Z,27.09
2023-03-07T15:26:06.662Z,27.78
2023-03-07T15:28:36.936Z,28.36
2023-03-07T15:31:06.972Z,28.83
2023-03-07T15:33:35.322Z,27.94
2023-03-07T15:36:27.640Z,28.47
2023-03-07T15:39:26.001Z,28.90
2023-03-07T15:42:01.342Z,29.65
2023-03-07T15:44:29.848Z,30.40
2023-03-07T15:47:04.176Z,31.31
2023-03-07T15:49:41.968Z,31.89
2023-03-07T15:52:23.640Z,32.51
2023-03-07T15:54:53.636Z,33.03
2023-03-07T15:57:24.485Z,33.00
2023-03-07T15:59:57.089Z,33.54
2023-03-07T16:02:42.193Z,33.60
2023-03-07T16:05:38.932Z,34.01
2023-03-07T16:08:13.021Z,34.63
2023-03-07T16:10:46.860Z,34.91
2023-03-07T16:13:17.948Z,35.25
2023-03-07T16:15:46.008Z,35.61
2023-03-07T16:18:23.130Z,35.36
2023-03-07T16:20:51.176Z,35.72
2023-03-07T16:23:19.217Z,35.58
2023-03-07T16:25:47.402Z,35.49
2023-03-07T16:28:15.546Z,35.73
2023-03-07T16:30:45.452Z,36.17
2023-03-07T16:33:14.204Z,36.44
2023-03-07T16:35:45.376Z,37.05
2023-03-07T16:38:13.428Z,37.67
2023-03-07T16:40:43.733Z,38.41
2023-03-07T16:43:32.953Z,39.33
2023-03-07T16:46:02.246Z,39.60
2023-03-07T16:48:30.287Z,39.99
2023-03-07T16:50:59.985Z,40.50
2023-03-07T16:53:28.064Z,40.79
2023-03-07T16:55:58.504Z,41.01
2023-03-07T16:58:29.412Z,41.41
2023-03-07T17:00:59.070Z,41.45
2023-03-07T17:03:29.775Z,42.01
2023-03-07T17:05:59.219Z,42.57
2023-03-07T17:08:27.220Z,42.52
2023-03-07T17:10:55.296Z,42.85
2023-03-07T17:13:23.433Z,43.05
2023-03-07T17:15:51.485Z,43.44
2023-03-07T17:18:19.548Z,43.96
2023-03-07T17:20:47.610Z,44.00
2023-03-07T17:23:17.151Z,44.09
2023-03-07T17:25:45.167Z,44.05
2023-03-07T17:28:15.754Z,44.46
2023-03-07T17:30:45.570Z,44.82
2023-03-07T17:33:15.027Z,45.17
2023-03-07T17:35:43.400Z,45.83
2023-03-07T17:38:11.517Z,46.13
2023-03-07T17:40:41.180Z,46.00
2023-03-07T17:43:09.232Z,46.44
2023-03-07T17:45:39.704Z,46.41
2023-03-07T17:48:08.296Z,46.60
2023-03-07T17:50:36.523Z,47.14
2023-03-07T17:53:04.531Z,47.22
2023-03-07T17:55:32.894Z,47.40
2023-03-07T17:58:02.333Z,47.41
2023-03-07T18:00:30.459Z,47.34
2023-03-07T18:02:58.565Z,47.21
2023-03-07T18:05:27.998Z,47.20
2023-03-07T18:07:56.793Z,47.22
2023-03-07T18:10:25.256Z,47.25
2023-03-07T18:12:54.791Z,47.44
2023-03-07T18:15:44.997Z,47.18
2023-03-07T18:18:35.069Z,47.34
2023-03-07T18:21:29.194Z,47.65
2023-03-07T18:28:26.219Z,48.21
2023-03-07T18:31:14.947Z,48.85
2023-03-07T18:33:50.919Z,49.95
2023-03-07T18:37:19.724Z,52.27
2023-03-07T18:45:02.649Z,52.36
2023-03-07T18:51:57.151Z,51.51
2023-03-07T18:58:31.782Z,51.22
2023-03-07T19:01:44.246Z,51.08
2023-03-07T19:04:31.509Z,51.30
2023-03-07T19:10:55.034Z,50.95
2023-03-07T19:21:30.924Z,51.08
2023-03-07T19:24:30.139Z,51.52
2023-03-07T19:26:59.995Z,51.75
2023-03-07T19:29:28.725Z,51.89
2023-03-07T19:32:23.652Z,52.10
2023-03-07T19:35:26.401Z,52.72
2023-03-07T19:38:50.363Z,52.28
2023-03-07T19:53:00.663Z,53.23
2023-03-07T19:59:08.508Z,53.52
2023-03-07T20:01:37.012Z,53.56
2023-03-07T20:04:08.078Z,53.67
2023-03-07T20:06:36.781Z,54.01
2023-03-07T20:09:18.883Z,54.07
2023-03-07T20:11:48.814Z,54.78
2023-03-07T20:17:47.235Z,54.25
2023-03-07T20:20:19.385Z,54.23
2023-03-07T20:22:47.844Z,54.37
2023-03-07T20:25:16.136Z,54.36
2023-03-07T20:27:45.691Z,54.59
2023-03-07T20:30:15.164Z,55.07
2023-03-07T20:32:47.027Z,54.78
2023-03-07T20:38:41.859Z,54.80
2023-03-07T20:41:16.764Z,54.70
2023-03-07T20:44:13.612Z,54.89
2023-03-07T20:47:12.019Z,54.61
2023-03-07T20:49:40.354Z,54.25
2023-03-07T20:52:36.964Z,54.14
2023-03-07T21:03:40.600Z,54.84
2023-03-07T21:06:09.246Z,54.68
2023-03-07T21:08:39.089Z,54.87
2023-03-07T21:11:10.066Z,55.23
2023-03-07T21:13:40.495Z,55.14
2023-03-07T21:16:11.939Z,55.08
2023-03-07T21:18:42.747Z,55.05
2023-03-07T21:21:24.915Z,54.59
2023-03-07T21:23:57.861Z,55.05
2023-03-07T21:29:25.423Z,54.91
2023-03-07T21:31:54.515Z,54.87
2023-03-07T21:34:24.218Z,55.22
2023-03-07T21:36:56.152Z,55.60
2023-03-07T21:39:25.530Z,55.52
2023-03-07T21:41:53.921Z,55.51
2023-03-07T21:44:34.453Z,55.06
2023-03-07T21:47:02.779Z,55.17
2023-03-07T21:49:32.988Z,54.98
2023-03-07T21:52:01.175Z,54.93
2023-03-07T21:54:29.431Z,54.93
2023-03-07T21:56:57.620Z,55.10
2023-03-07T21:59:28.245Z,55.27
2023-03-07T22:02:02.550Z,55.33
2023-03-07T22:04:35.041Z,55.69
2023-03-07T22:07:03.151Z,55.54
2023-03-07T22:09:31.303Z,55.62
2023-03-07T22:11:59.417Z,55.97
2023-03-07T22:14:27.487Z,56.97
2023-03-07T22:16:56.647Z,56.65
2023-03-07T22:19:24.760Z,56.36
2023-03-07T22:21:54.251Z,56.29
2023-03-07T22:24:22.341Z,56.32
2023-03-07T22:26:50.380Z,56.10
2023-03-07T22:29:18.552Z,56.10
2023-03-07T22:31:46.678Z,56.16
2023-03-07T22:34:15.357Z,56.05
2023-03-07T22:36:43.576Z,56.21
2023-03-07T22:39:13.048Z,56.34
2023-03-07T22:41:41.132Z,56.37
2023-03-07T22:44:09.186Z,56.46
2023-03-07T22:46:37.244Z,56.52
2023-03-07T22:49:05.360Z,56.59
2023-03-07T22:51:35.474Z,56.48
2023-03-07T22:54:04.383Z,56.64
2023-03-07T22:56:34.652Z,56.72
2023-03-07T22:59:03.709Z,57.13
2023-03-07T23:01:31.809Z,56.97
2023-03-07T23:04:01.278Z,56.88
2023-03-07T23:06:30.698Z,56.77
2023-03-07T23:08:59.732Z,56.65
2023-03-07T23:11:29.984Z,56.69
2023-03-07T23:13:59.596Z,56.77
2023-03-07T23:16:30.129Z,56.78
2023-03-07T23:18:59.890Z,57.13
2023-03-07T23:21:30.200Z,57.00
2023-03-07T23:23:59.458Z,57.02
2023-03-07T23:26:29.252Z,56.93
2023-03-07T23:28:59.180Z,56.69
2023-03-07T23:31:29.300Z,56.91
2023-03-07T23:33:59.017Z,56.79
2023-03-07T23:36:29.429Z,56.74
2023-03-07T23:38:58.239Z,56.91
2023-03-07T23:41:27.357Z,56.83
2023-03-07T23:43:56.773Z,56.94
2023-03-07T23:46:27.210Z,56.85
2023-03-07T23:48:56.001Z,56.90
2023-03-07T23:51:24.828Z,56.81
2023-03-07T23:53:52.975Z,56.88
2023-03-07T23:56:21.480Z,57.10
2023-03-07T23:58:50.916Z,57.00
